createdAt,value
2022-09-29T00:00:55.587Z,8.32
2022-09-29T00:09:27.081Z,8.36
2022-09-29T00:18:12.674Z,8.36
2022-09-29T00:26:33.463Z,8.40
2022-09-29T00:34:56.346Z,8.35
2022-09-29T00:44:01.785Z,8.35
2022-09-29T00:52:37.861Z,8.36
2022-09-29T01:01:01.427Z,8.36
2022-09-29T01:09:29.301Z,8.31
2022-09-29T01:17:53.573Z,8.26
2022-09-29T01:26:43.088Z,8.32
2022-09-29T01:35:34.652Z,8.42
2022-09-29T01:44:12.884Z,8.42
2022-09-29T01:52:42.949Z,8.39
2022-09-29T02:01:13.295Z,8.42
2022-09-29T02:09:42.814Z,8.38
2022-09-29T02:18:14.056Z,8.32
2022-09-29T02:26:37.505Z,8.38
2022-09-29T02:35:01.841Z,8.41
2022-09-29T02:43:46.195Z,8.45
2022-09-29T02:52:26.810Z,8.45
2022-09-29T03:00:49.932Z,8.50
2022-09-29T03:09:12.850Z,8.47
2022-09-29T03:17:35.755Z,8.47
2022-09-29T03:25:59.525Z,8.47
2022-09-29T03:34:22.349Z,8.47
2022-09-29T03:42:48.253Z,8.41
2022-09-29T03:51:11.176Z,8.40
2022-09-29T03:59:34.040Z,8.36
2022-09-29T04:07:56.953Z,8.27
2022-09-29T04:16:19.944Z,8.23
2022-09-29T04:24:43.012Z,8.19
2022-09-29T04:33:05.929Z,8.12
2022-09-29T04:41:29.110Z,8.06
2022-09-29T04:49:52.027Z,8.05
2022-09-29T04:58:15.561Z,8.05
2022-09-29T05:06:39.575Z,8.02
2022-09-29T05:15:02.470Z,8.00
2022-09-29T05:23:25.415Z,8.04
2022-09-29T05:31:48.870Z,8.08
2022-09-29T05:40:11.891Z,8.14
2022-09-29T05:48:34.830Z,8.13
2022-09-29T05:56:57.752Z,8.08
2022-09-29T06:05:20.599Z,8.08
2022-09-29T06:13:46.292Z,8.14
2022-09-29T06:22:09.110Z,8.25
2022-09-29T06:30:31.989Z,8.31
2022-09-29T06:38:55.804Z,8.39
2022-09-29T06:47:18.699Z,8.41
2022-09-29T06:55:41.615Z,8.33
2022-09-29T07:04:05.001Z,8.34
2022-09-29T07:12:28.055Z,8.48
2022-09-29T07:20:50.957Z,8.60
2022-09-29T07:29:15.843Z,8.80
2022-09-29T07:37:52.258Z,8.89
2022-09-29T07:46:15.568Z,9.07
2022-09-29T07:54:38.681Z,9.34
2022-09-29T08:03:07.525Z,9.54
2022-09-29T08:11:32.849Z,9.55
2022-09-29T08:19:56.115Z,9.46
2022-09-29T08:28:29.241Z,9.40
2022-09-29T08:36:55.868Z,9.28
2022-09-29T08:45:29.991Z,9.27
2022-09-29T08:54:02.582Z,9.34
2022-09-29T09:02:44.860Z,9.47
2022-09-29T09:11:29.536Z,9.64
2022-09-29T09:20:19.190Z,9.79
2022-09-29T09:29:02.257Z,9.94
2022-09-29T09:37:28.207Z,10.15
2022-09-29T09:46:13.008Z,10.30
2022-09-29T09:54:45.097Z,10.55
2022-09-29T10:03:10.252Z,10.79
2022-09-29T10:11:33.879Z,11.04
2022-09-29T10:19:56.770Z,11.32
2022-09-29T10:28:20.082Z,11.43
2022-09-29T10:36:53.304Z,11.48
2022-09-29T10:45:22.103Z,11.47
2022-09-29T10:53:46.194Z,11.63
2022-09-29T11:02:22.170Z,11.79
2022-09-29T11:10:48.610Z,11.88
2022-09-29T11:19:15.694Z,12.06
2022-09-29T11:28:01.253Z,12.09
2022-09-29T11:36:51.930Z,11.98
2022-09-29T11:45:22.061Z,11.77
2022-09-29T11:54:06.654Z,11.73
2022-09-29T12:02:33.419Z,11.68
2022-09-29T12:11:13.074Z,11.71
2022-09-29T12:19:47.363Z,11.74
2022-09-29T12:28:18.398Z,11.81
2022-09-29T12:37:02.613Z,11.78
2022-09-29T12:45:42.843Z,11.78
2022-09-29T12:54:24.201Z,11.88
2022-09-29T13:02:50.329Z,12.06
2022-09-29T13:11:43.072Z,12.12
2022-09-29T13:21:00.410Z,12.23
2022-09-29T13:29:26.657Z,12.32
2022-09-29T13:38:04.093Z,12.19
2022-09-29T13:46:32.794Z,11.90
2022-09-29T13:54:55.773Z,11.62
2022-09-29T14:03:26.953Z,11.56
2022-09-29T14:11:53.156Z,11.57
2022-09-29T14:20:30.988Z,11.61
2022-09-29T14:28:58.899Z,11.60
2022-09-29T14:37:25.360Z,11.55
2022-09-29T14:46:44.459Z,11.48
2022-09-29T14:55:21.301Z,11.46
2022-09-29T15:03:48.737Z,11.38
2022-09-29T15:12:20.342Z,11.27
2022-09-29T15:21:00.287Z,11.07
2022-09-29T15:29:25.596Z,10.92
2022-09-29T15:38:15.909Z,10.77
2022-09-29T15:46:49.307Z,10.62
2022-09-29T15:55:19.425Z,10.55
2022-09-29T16:04:01.858Z,10.39
2022-09-29T16:12:26.247Z,10.05
2022-09-29T16:20:51.193Z,9.77
2022-09-29T16:29:20.216Z,9.53
2022-09-29T16:37:43.038Z,9.29
2022-09-29T16:46:07.704Z,9.04
2022-09-29T16:54:39.965Z,8.72
2022-09-29T17:03:05.829Z,8.41
2022-09-29T17:11:29.612Z,8.15
2022-09-29T17:19:56.627Z,7.93
2022-09-29T17:28:24.014Z,7.74
2022-09-29T17:36:49.347Z,7.56
2022-09-29T17:45:17.885Z,7.30
2022-09-29T17:53:41.798Z,7.07
2022-09-29T18:02:12.284Z,6.99
2022-09-29T18:10:51.174Z,6.92
2022-09-29T18:19:18.831Z,6.83
2022-09-29T18:27:42.473Z,6.67
2022-09-29T18:36:05.385Z,6.52
2022-09-29T18:44:30.107Z,6.43
2022-09-29T18:52:54.266Z,6.34
2022-09-29T19:01:23.350Z,6.35
2022-09-29T19:09:46.434Z,6.47
2022-09-29T19:18:15.170Z,6.57
2022-09-29T19:26:41.580Z,6.62
2022-09-29T19:35:09.160Z,6.58
2022-09-29T19:43:32.654Z,6.51
2022-09-29T19:51:58.736Z,6.47
2022-09-29T20:00:22.622Z,6.44
2022-09-29T20:08:45.635Z,6.36
2022-09-29T20:17:08.586Z,6.27
2022-09-29T20:25:31.461Z,6.10
2022-09-29T20:33:54.252Z,5.95
2022-09-29T20:42:18.146Z,5.85
2022-09-29T20:50:44.210Z,5.74
2022-09-29T20:59:12.163Z,5.65
2022-09-29T21:07:38.411Z,5.60
2022-09-29T21:16:02.556Z,5.49
2022-09-29T21:24:25.492Z,5.33
2022-09-29T21:32:48.662Z,5.14
2022-09-29T21:41:21.838Z,4.99
2022-09-29T21:49:45.014Z,4.89
2022-09-29T21:58:07.864Z,4.76
2022-09-29T22:06:33.219Z,4.62
2022-09-29T22:14:56.142Z,4.52
2022-09-29T22:23:19.020Z,4.39
2022-09-29T22:31:42.046Z,4.21
2022-09-29T22:40:05.910Z,4.05
2022-09-29T22:48:28.883Z,4.02
2022-09-29T22:56:51.927Z,3.95
2022-09-29T23:05:15.655Z,3.77
2022-09-29T23:13:40.263Z,3.70
2022-09-29T23:22:03.375Z,3.64
2022-09-29T23:30:27.064Z,3.60
2022-09-29T23:39:08.513Z,3.59
2022-09-29T23:47:31.317Z,3.54
2022-09-29T23:55:54.186Z,3.50
